航空気象通報

ウインドサーファーのための航空気象通報による風予報です。

2/21-2/23の航空気象通報

2017年02月22日 00時11分23秒 | TAF
羽田空港
TAF AMD RJTT 211312Z 2113/2218 34020KT 9999 FEW030
BECMG 2118/2120 02008KT
BECMG 2122/2124 10008KT
BECMG 2200/2203 18016KT
TEMPO 2206/2212 19024G36KT
日本時間21日21時-22日03時:340度から20ノットの風
03-05時:風が変化
05-07時:020度から8ノットの風
07-09時:風が変化
09時:100度から8ノットの風
09-12時:風が変化
12時-23日03時:180度から16ノットの風
但し、22日15-21時の間:ときどき190度から24ノット、突風36ノット


静岡空港
TAF RJNS 211115Z 2112/2218 28016KT 9999 FEW030
BECMG 2115/2117 32006KT
BECMG 2122/2124 13006KT
BECMG 2206/2209 26006KT
日本時間21日21-24時:280度から16ノットの風
22日00-02時:風が変化
02-07時:320度から6ノットの風
07-09時:風が変化
09-15時:130度から6ノットの風
15-18時:風が変化
18時-23日03時:260度から6ノットの風


福岡空港
TAF RJFF 211115Z 2112/2218 11005KT 9999 FEW030
BECMG 2206/2209 15015KT
BECMG 2209/2212 16025G35KT
TEMPO 2212/2218 3000 TSRA BR FEW005 SCT010 BKN020 FEW025CB
BECMG 2215/2218 26015G25KT
日本時間21日21時-22日15時:110度から5ノットの風
15-18時:風が変化
18時:150度から15ノットの風
18-21時:風が変化
21-24時:160度から25ノット、突風35ノット
22日00-03時:風が変化
03時:260度から15ノット、突風25ノット


那覇空港
TAF ROAH 211106Z 2112/2218 11007KT 9999 FEW020 SCT030
BECMG 2209/2212 17015KT
日本時間21日21時-22日18時:110度から7ノットの風
18-21時:風が変化
21時-22日03時:170度から15ノットの風


石垣空港
TAF ROIG 211108Z 2112/2218 10012KT 9999 FEW020 BKN035
BECMG 2117/2119 15014KT
日本時間21日21時-22日02時:100度から12ノットの風
02-04時:風が変化
04時-23日03時:150度から14ノットの風


マウイのカフルイ空港
PHOG 211120Z 2112/2212 05012KT P6SM VCSH FEW035 BKN050
FM211900 06018G30KT P6SM SCT050
FM220500 06015G28KT P6SM VCSH SCT025 BKN050 AMD LTD TO VIS AND WIND TIL 211600
ハワイ時間21日02-09時:050度から12ノットの風

09-19時:060度から18ノット、突風30ノット
19時-22日02時:060度から15ノット、突風28ノット


サイパン空港
TAF PGSN 211120Z 2112/2212 06011KT P6SM VCSH SCT020 SCT050
FM212200 07015KT P6SM VCSH SCT020 SCT040
マリアナ時間21日22時-22日08時:060度から11ノットの風
08-22時:070度から15ノットの風


ジャンル:
お天気
コメント   この記事についてブログを書く
この記事をはてなブックマークに追加
« 2/20-2/22の航空気象通報 | トップ | 2/22-2/24の航空気象通報 »
最近の画像もっと見る

コメントを投稿

ブログ作成者から承認されるまでコメントは反映されません。

TAF」カテゴリの最新記事

トラックバック

この記事のトラックバック  Ping-URL
ブログ作成者から承認されるまでトラックバックは反映されません。
  • 30日以上前の記事に対するトラックバックは受け取らないよう設定されております。
  • 送信元の記事内容が半角英数のみのトラックバックは受け取らないよう設定されております。
  • このブログへのリンクがない記事からのトラックバックは受け取らないよう設定されております。
  • ※ブログ管理者のみ、編集画面で設定の変更が可能です。